• Join FlightAware (Why Join?)
  • Login
  • US Flag 
09:22AM EDT


 

Airport Tracker/Info


-or-


 

Live Flight TrackerFlight Track Log ✈ SWA504 ✈ 25-Apr-2013 ✈ KDEN - KEWR

Flight Track Log - Related Links

Times and Time Zones

All times are in EDT time to prevent confusion due to time zone crossing. See the SWA504 flight status page for this flight to view local times or setup timezone preferences in your user account.

Time Position Orientation Groundspeed Altitude Reporting Facility
EDT Latitude Longitude Course Direction KTS MPH feet Rate Location/Type
04:44PM 39.8833 -104.5667 78° East 188 216 7,200  Level Denver TRACON
04:45PM 39.8772 -104.4303 93° East 270 311 10,300 2,040 Climbing Denver Center
04:46PM 39.8786 -104.2981 89° East 339 390 12,900 2,580 Climbing Denver Center
04:48PM 39.8806 -104.1294 89° East 378 435 16,200 2,760 Climbing Denver Center
04:49PM 39.9951 -103.8349 78° East  Level Estimated
04:49PM 39.8822 -103.9789 89° East 416 479 18,700  Level Denver Center
04:51PM 39.8936 -103.6456 87° East 432 497 24,100 2,400 Climbing Denver Center
04:52PM 39.9119 -103.4864 81° East 458 527 26,100 1,860 Climbing Denver Center
04:53PM 39.9319 -103.3014 82° East 475 547 28,000 1,620 Climbing Denver Center
04:54PM 39.9517 -103.1350 81° East 486 559 29,500 1,440 Climbing Denver Center
04:55PM 39.9728 -102.9350 82° East 499 574 31,000 1,260 Climbing Denver Center
04:56PM 39.9919 -102.7600 82° East 509 586 32,200 1,380 Climbing Denver Center
04:57PM 40.0114 -102.5822 82° East 516 594 33,900 1,560 Climbing Denver Center
04:58PM 40.0328 -102.3758 82° East 514 592 35,500 1,140 Climbing Denver Center
04:59PM 40.0503 -102.1961 83° East 521 600 36,300 480 Climbing Denver Center
05:01PM 40.0732 -101.9183 84° East  Level FlightAware Approximate
05:01PM 40.0906 -101.7994 84° East 536 617 37,000  Level Denver Center
05:02PM 40.1108 -101.5853 83° East 535 616 37,000  Level Denver Center
05:03PM 40.1292 -101.4008 83° East 537 618 37,000  Level Denver Center
05:04PM 40.1489 -101.1881 83° East 533 613 37,000  Level Denver Center
05:05PM 40.1658 -101.0069 83° East 529 609 37,000  Level Denver Center
05:06PM 40.1858 -100.7936 83° East 533 613 37,000  Level Denver Center
05:07PM 40.2128 -100.5514 82° East 533 613 37,000  Level Denver Center
05:08PM 40.2481 -100.3769 75° East 524 603 37,000  Level Denver Center
05:09PM 40.2900 -100.1708 75° East 528 608 37,000  Level Denver Center
05:10PM 40.3247 -99.9942 75° East 526 605 37,000  Level Denver Center
05:11PM 40.3600 -99.8197 75° East 524 603 37,000  Level Denver Center
05:12PM 40.4039 -99.5958 75° East 528 608 37,000  Level Denver Center
05:14PM 40.4408 -99.4114 75° East 527 606 37,000  Level Denver Center
05:15PM 40.4756 -99.2250 76° East 527 606 37,000  Level Denver Center
05:16PM 40.5119 -99.0403 75° East 526 605 37,000  Level Denver Center
05:17PM 40.5472 -98.8542 76° East 528 608 37,000  Level Denver Center
05:18PM 40.5817 -98.6683 76° East 528 608 37,000  Level Denver Center
05:19PM 40.6225 -98.4458 76° East 526 605 37,000  Level Denver Center
05:20PM 40.6564 -98.2619 76° East 524 603 37,000  Level Minneapolis Center
05:21PM 40.6972 -98.0397 76° East 523 602 37,000  Level Minneapolis Center
05:22PM 40.7303 -97.8542 77° East 523 602 37,000  Level Minneapolis Center
05:23PM 40.7636 -97.6681 77° East 523 602 37,000  Level Minneapolis Center
05:24PM 40.7956 -97.4803 77° East 525 604 37,000  Level Minneapolis Center
05:25PM 40.8308 -97.2836 77° East 525 604 37,000  Level Minneapolis Center
05:26PM 40.8636 -97.0950 77° East 527 606 37,000  Level Minneapolis Center
05:27PM 40.8964 -96.9047 77° East 531 611 37,000  Level Minneapolis Center
05:28PM 40.9281 -96.7114 78° East 538 619 37,000  Level Minneapolis Center
05:29PM 40.9694 -96.4836 76° East 535 616 37,000  Level Minneapolis Center
05:30PM 41.0053 -96.2933 76° East 536 617 37,000  Level Minneapolis Center
05:31PM 41.0367 -96.1033 78° East 535 616 37,000  Level Minneapolis Center
05:32PM 41.0689 -95.9139 77° East 536 617 37,000  Level Minneapolis Center
05:33PM 41.1081 -95.6861 77° East 536 617 37,000  Level Minneapolis Center
05:34PM 41.1406 -95.4944 77° East 539 620 37,000  Level Minneapolis Center
05:35PM 41.1736 -95.3031 77° East 537 618 37,000  Level Minneapolis Center
05:36PM 41.2058 -95.1092 77° East 539 620 37,000  Level Minneapolis Center
05:37PM 41.2369 -94.9164 78° East 538 619 37,000  Level Minneapolis Center
05:38PM 41.2678 -94.7217 78° East 539 620 37,000  Level Minneapolis Center
05:39PM 41.2989 -94.5267 78° East 541 623 37,000  Level Minneapolis Center
05:41PM 41.3358 -94.2908 78° East 542 624 37,000  Level Minneapolis Center
05:42PM 41.3653 -94.1044 78° East 546 628 37,000  Level Minneapolis Center
05:43PM 41.3972 -93.9067 78° East 548 631 37,000  Level Minneapolis Center
05:44PM 41.4328 -93.6708 79° East 546 628 37,000  Level Minneapolis Center
05:45PM 41.4544 -93.4711 82° East 547 629 37,000  Level Minneapolis Center
05:46PM 41.4731 -93.2714 83° East 548 631 37,000  Level Minneapolis Center
05:47PM 41.4925 -93.0725 82° East 544 626 37,000  Level Minneapolis Center
05:48PM 41.5108 -92.8744 83° East 543 625 37,000  Level Minneapolis Center
05:49PM 41.5250 -92.7172 83° East 539 620 37,000  Level Minneapolis Center
05:50PM 41.5503 -92.4408 83° East 539 620 37,000  Level Minneapolis Center
05:51PM 41.5672 -92.2414 83° East 542 624 37,000  Level Minneapolis Center
05:52PM 41.5806 -92.0836 84° East 539 620 37,000  Level Minneapolis Center
05:53PM 41.6019 -91.8439 83° East 541 623 37,000  Level Minneapolis Center
05:54PM 41.6208 -91.6042 84° East 545 627 37,000  Level Chicago Center
05:55PM 41.6350 -91.4078 84° East 540 621 37,000  Level Chicago Center
05:56PM 41.6544 -91.1689 84° East 543 625 37,000  Level Chicago Center
05:57PM 41.6686 -90.9722 84° East 539 620 37,000  Level Chicago Center
05:58PM 41.6833 -90.7744 84° East 540 621 37,000  Level Chicago Center
05:59PM 41.6992 -90.5539 84° East 533 613 37,000  Level Chicago Center
06:00PM 41.7128 -90.3542 85° East 536 617 37,000  Level Chicago Center
06:01PM 41.7264 -90.1581 85° East 531 611 37,000  Level Chicago Center
06:02PM 41.7389 -89.9581 85° East 535 616 37,000  Level Chicago Center
06:03PM 41.7533 -89.7592 84° East 535 616 37,000  Level Chicago Center
06:04PM 41.7667 -89.5394 85° East 529 609 37,000  Level Chicago Center
06:06PM 41.7789 -89.3444 85° East 528 608 37,000  Level Chicago Center
06:07PM 41.7892 -89.1503 86° East 525 604 37,000  Level Chicago Center
06:08PM 41.8011 -88.9578 85° East 523 602 37,000  Level Chicago Center
06:09PM 41.8128 -88.7236 86° East 525 604 37,000  Level Chicago Center
06:10PM 41.8242 -88.5286 85° East 524 603 37,000  Level Chicago Center
06:11PM 41.8342 -88.3322 86° East 527 606 37,000  Level Chicago Center
06:12PM 41.8433 -88.1350 86° East 527 606 37,000  Level Chicago Center
06:13PM 41.8533 -87.9381 86° East 527 606 37,000  Level Chicago Center
06:14PM 41.8625 -87.7408 86° East 527 606 37,000  Level Chicago Center
06:15PM 41.8733 -87.5047 86° East 529 609 37,000  Level Chicago Center
06:16PM 41.8814 -87.3072 87° East 528 608 37,000  Level Chicago Center
06:17PM 41.8881 -87.1114 87° East 525 604 37,000  Level Chicago Center
06:18PM 41.8967 -86.9169 87° East 523 602 37,000  Level Chicago Center
06:19PM 41.9053 -86.7217 87° East 525 604 37,000  Level Chicago Center
06:20PM 41.9117 -86.5122 88° East 520 598 37,000  Level Chicago Center
06:21PM 41.9189 -86.3167 87° East 522 601 37,000  Level Chicago Center
06:22PM 41.9253 -86.1219 87° East 521 600 37,000  Level Chicago Center
06:23PM 41.9319 -85.9264 87° East 524 603 37,000  Level Chicago Center
06:24PM 41.9372 -85.7278 88° East 529 609 37,000  Level Chicago Center
06:25PM 41.9439 -85.4867 88° East 533 613 37,000  Level Chicago Center
06:26PM 41.9500 -85.3133 87° East 548 631 37,000  Level Cleveland Center
06:27PM 41.9539 -85.1097 88° East 553 636 37,000  Level Cleveland Center
06:28PM 41.9533 -84.9086 90° East 547 629 37,000  Level Cleveland Center
06:29PM 41.9503 -84.7128 91° East 537 618 37,000  Level Cleveland Center
06:30PM 41.9489 -84.5117 90° East 537 618 37,000  Level Cleveland Center
06:31PM 41.9472 -84.3161 91° East 537 618 37,000  Level Cleveland Center
06:32PM 41.9414 -84.1008 92° East 532 612 37,000  Level Cleveland Center
06:33PM 41.9389 -83.9025 91° East 532 612 37,000  Level Cleveland Center
06:34PM 41.9361 -83.7097 91° East 532 612 37,000  Level Cleveland Center
06:35PM 41.9325 -83.5336 92° East 527 606 37,000  Level Cleveland Center
06:36PM 41.9331 -83.3381 90° East 520 598 37,000  Level Cleveland Center
06:37PM 41.9314 -83.1425 91° East 515 593 37,000  Level Cleveland Center
06:38PM 41.9292 -82.9500 91° East 515 593 37,000  Level Cleveland Center
06:40PM 41.9174 -82.7005 90° East  Level FlightAware Approximate
06:40PM 41.9261 -82.5619 90° East 515 593 37,000  Level Cleveland Center
06:41PM 41.9253 -82.3664 90° East 515 593 37,000  Level Cleveland Center
06:42PM 41.9197 -82.1711 92° East 520 598 37,000  Level Cleveland Center
06:43PM 41.9183 -81.9617 90° East 513 590 37,000  Level Cleveland Center
06:44PM 41.9122 -81.7689 92° East 521 600 37,000  Level Cleveland Center
06:45PM 41.8931 -81.5706 97° East 526 605 37,000  Level Cleveland Center
06:46PM 41.8758 -81.3919 97° East 531 611 37,000  Level Cleveland Center
06:47PM 41.8583 -81.1964 97° East 531 611 37,000  Level Cleveland Center
06:48PM 41.8425 -80.9983 96° East 531 611 37,000  Level Cleveland Center
06:49PM 41.8222 -80.8061 98° East 531 611 37,000  Level Cleveland Center
06:50PM 41.8036 -80.6111 97° East 526 605 37,000  Level Cleveland Center
06:51PM 41.7806 -80.4022 98° East 518 596 37,000  Level Cleveland Center
06:52PM 41.7633 -80.2100 97° East 523 602 37,000  Level Cleveland Center
06:53PM 41.7439 -80.0128 97° East 523 602 37,000  Level Cleveland Center
06:54PM 41.7239 -79.8236 98° East 523 602 37,000  Level Cleveland Center
06:55PM 41.7039 -79.6319 98° East 517 595 37,000  Level Cleveland Center
06:56PM 41.6833 -79.4406 98° East 517 595 37,000  Level Cleveland Center
06:57PM 41.6625 -79.2464 98° East 524 603 37,000  Level Cleveland Center
06:58PM 41.6392 -79.0522 99° East 524 603 37,000  Level Cleveland Center
06:59PM 41.6178 -78.8583 98° East 524 603 37,000  Level Cleveland Center
07:00PM 41.5958 -78.6672 99° East 524 603 37,000  Level Cleveland Center
07:01PM 41.5736 -78.4708 99° East 524 603 37,000 -420 Level Cleveland Center
07:02PM 41.5492 -78.2775 100° East 524 603 36,200 -2,100 Descending Cleveland Center
07:03PM 41.5231 -78.0531 99° East 519 597 32,400 -2,340 Descending New York Center
07:04PM 41.4972 -77.8619 100° East 519 597 31,000 -720 Descending New York Center
07:05PM 41.4708 -77.6736 101° East 519 597 31,000  Level New York Center
07:06PM 41.4442 -77.4825 100° East 519 597 31,000  Level New York Center
07:07PM 41.4150 -77.2969 102° East 519 597 31,000  Level New York Center
07:08PM 41.3875 -77.1089 101° East 514 592 31,000  Level New York Center
07:09PM 41.3600 -76.9239 101° East 514 592 31,000 -900 Level New York Center
07:10PM 41.3258 -76.7328 103° East 514 592 29,300 -2,340 Descending New York Center
07:11PM 41.2781 -76.5603 110° East 514 592 26,400 -2,820 Descending New York Center
07:12PM 41.2319 -76.3936 110° East 495 570 23,700 -2,640 Descending New York Center
07:13PM 41.1931 -76.2469 109° East 474 545 21,200 -2,640 Descending New York Center
07:14PM 41.1542 -76.0922 108° East 455 524 18,400 -1,680 Descending New York Center
07:15PM 41.1131 -75.9431 110° East 437 503 17,900 -1,020 Descending New York Center
07:16PM 41.0717 -75.7883 109° East 419 482 16,400 -1,920 Descending New York Center
07:17PM 41.0317 -75.6478 111° Southeast 407 468 14,100 -1,740 Descending New York Center
07:18PM 40.9956 -75.5161 110° East 390 449 13,000 -1,080 Descending New York Center
07:19PM 40.9625 -75.4011 111° Southeast 380 437 12,000 -1,260 Descending New York Center
07:20PM 40.9278 -75.2781 110° East 375 432 10,600 -1,080 Descending New York Center
07:21PM 40.8947 -75.1606 110° East 328 377 9,900 -960 Descending New York Center
07:22PM 40.8669 -75.0597 110° East 298 343 8,700 -1,260 Descending New York Center
07:23PM 40.8372 -74.9592 111° Southeast 293 337 7,400 -900 Descending New York Center
07:24PM 40.8300 -74.8683 96° East 293 337 7,000 -240 Descending New York Center
07:25PM 40.8606 -74.7686 68° East 271 312 7,000 -420 Level New York Center
07:26PM 40.8864 -74.6850 68° East 266 306 6,200 -840 Descending New York Center
07:27PM 40.9167 -74.5881 68° East 266 306 5,400 -600 Descending New York Center
07:28PM 40.9422 -74.5069 67° East 266 306 5,000 -240 Descending New York Center
07:29PM 40.9475 -74.4028 86° East 261 300 5,000 -120 Level New York Center
07:30PM 40.9333 -74.3000 100° East 262 302 4,800 -480 Descending New York TRACON
07:31PM 40.9000 -74.2167 118° Southeast 257 296 4,100 -540 Descending New York TRACON
07:32PM 40.8833 -74.1333 105° East 237 273 3,800 -660 Descending New York TRACON
07:33PM 40.8333 -74.0833 143° Southeast 229 264 2,800 -900 Descending New York TRACON
07:34PM 40.7833 -74.1000 194° South 196 226 2,000 -900 Descending New York TRACON
07:35PM 40.7500 -74.1333 217° Southwest 160 184 1,100 -840 Descending New York TRACON
07:36PM 40.7167 -74.1500 201° Southwest 136 157 400 -720 Descending New York TRACON
07:38PM 40.6925 -74.1687 173° South  Level Estimated
07:45PM 40.6925 -74.1687 173° South  Level Estimated
07:46PM 40.6925 -74.1687 173° South  Level Estimated